sensor_id;sensor_type;location;lat;lon;timestamp;P1;durP1;ratioP1;P2;durP2;ratioP2
23632;SDS011;11993;48.748;9.166;2023-01-31T00:00:47;16.67;;;5.88;;
23632;SDS011;11993;48.748;9.166;2023-01-31T00:03:13;14.90;;;5.50;;
23632;SDS011;11993;48.748;9.166;2023-01-31T00:05:38;13.95;;;5.03;;
23632;SDS011;11993;48.748;9.166;2023-01-31T00:08:04;13.05;;;5.68;;
23632;SDS011;11993;48.748;9.166;2023-01-31T00:10:29;15.38;;;5.50;;
23632;SDS011;11993;48.748;9.166;2023-01-31T00:12:55;13.05;;;5.10;;
23632;SDS011;11993;48.748;9.166;2023-01-31T00:15:21;19.65;;;5.10;;
23632;SDS011;11993;48.748;9.166;2023-01-31T00:17:47;18.65;;;5.55;;
23632;SDS011;11993;48.748;9.166;2023-01-31T00:20:13;19.33;;;5.63;;
23632;SDS011;11993;48.748;9.166;2023-01-31T00:22:38;12.35;;;5.18;;
23632;SDS011;11993;48.748;9.166;2023-01-31T00:25:05;16.52;;;5.18;;
23632;SDS011;11993;48.748;9.166;2023-01-31T00:27:31;12.80;;;4.78;;
23632;SDS011;11993;48.748;9.166;2023-01-31T00:29:57;16.02;;;6.07;;
23632;SDS011;11993;48.748;9.166;2023-01-31T00:32:22;12.70;;;5.50;;
23632;SDS011;11993;48.748;9.166;2023-01-31T00:34:50;9.02;;;4.65;;
23632;SDS011;11993;48.748;9.166;2023-01-31T00:37:17;13.50;;;5.10;;
23632;SDS011;11993;48.748;9.166;2023-01-31T00:39:43;14.55;;;4.70;;
23632;SDS011;11993;48.748;9.166;2023-01-31T00:42:09;13.10;;;4.47;;
23632;SDS011;11993;48.748;9.166;2023-01-31T00:44:34;13.10;;;5.20;;
23632;SDS011;11993;48.748;9.166;2023-01-31T00:47:00;12.18;;;4.72;;
23632;SDS011;11993;48.748;9.166;2023-01-31T00:49:25;11.63;;;4.45;;
23632;SDS011;11993;48.748;9.166;2023-01-31T00:51:51;20.95;;;5.68;;
23632;SDS011;11993;48.748;9.166;2023-01-31T00:54:16;16.45;;;5.30;;
23632;SDS011;11993;48.748;9.166;2023-01-31T00:56:42;20.75;;;5.50;;
23632;SDS011;11993;48.748;9.166;2023-01-31T00:59:08;14.73;;;6.00;;
23632;SDS011;11993;48.748;9.166;2023-01-31T01:01:34;13.90;;;4.70;;
23632;SDS011;11993;48.748;9.166;2023-01-31T01:04:00;12.27;;;4.10;;
23632;SDS011;11993;48.748;9.166;2023-01-31T01:06:26;15.85;;;4.93;;
23632;SDS011;11993;48.748;9.166;2023-01-31T01:08:53;13.57;;;5.20;;
23632;SDS011;11993;48.748;9.166;2023-01-31T01:11:21;12.32;;;4.50;;
23632;SDS011;11993;48.748;9.166;2023-01-31T01:13:51;11.40;;;4.03;;
23632;SDS011;11993;48.748;9.166;2023-01-31T01:16:27;21.02;;;5.18;;
23632;SDS011;11993;48.748;9.166;2023-01-31T01:18:59;17.35;;;6.15;;
23632;SDS011;11993;48.748;9.166;2023-01-31T01:21:27;18.98;;;5.05;;
23632;SDS011;11993;48.748;9.166;2023-01-31T01:23:55;9.85;;;3.78;;
23632;SDS011;11993;48.748;9.166;2023-01-31T01:26:23;12.18;;;4.25;;
23632;SDS011;11993;48.748;9.166;2023-01-31T01:28:53;15.73;;;5.38;;
23632;SDS011;11993;48.748;9.166;2023-01-31T01:31:21;19.02;;;5.15;;
23632;SDS011;11993;48.748;9.166;2023-01-31T01:33:54;16.35;;;5.38;;
23632;SDS011;11993;48.748;9.166;2023-01-31T01:36:25;12.00;;;4.28;;
23632;SDS011;11993;48.748;9.166;2023-01-31T01:38:51;16.65;;;4.80;;
23632;SDS011;11993;48.748;9.166;2023-01-31T01:41:17;9.98;;;4.13;;
23632;SDS011;11993;48.748;9.166;2023-01-31T01:43:50;13.85;;;4.70;;
23632;SDS011;11993;48.748;9.166;2023-01-31T01:46:28;11.77;;;4.85;;
23632;SDS011;11993;48.748;9.166;2023-01-31T01:49:05;9.18;;;3.88;;
23632;SDS011;11993;48.748;9.166;2023-01-31T01:51:36;20.92;;;5.15;;
23632;SDS011;11993;48.748;9.166;2023-01-31T01:54:04;11.02;;;4.32;;
23632;SDS011;11993;48.748;9.166;2023-01-31T01:56:35;10.48;;;4.00;;
23632;SDS011;11993;48.748;9.166;2023-01-31T01:59:05;15.55;;;4.68;;
23632;SDS011;11993;48.748;9.166;2023-01-31T02:01:34;19.42;;;5.28;;
23632;SDS011;11993;48.748;9.166;2023-01-31T02:04:02;13.88;;;4.53;;
23632;SDS011;11993;48.748;9.166;2023-01-31T02:06:30;10.70;;;4.45;;
23632;SDS011;11993;48.748;9.166;2023-01-31T02:08:56;11.40;;;4.93;;
23632;SDS011;11993;48.748;9.166;2023-01-31T02:11:24;17.10;;;5.22;;
23632;SDS011;11993;48.748;9.166;2023-01-31T02:13:59;16.77;;;4.88;;
23632;SDS011;11993;48.748;9.166;2023-01-31T02:18:55;12.40;;;4.20;;
23632;SDS011;11993;48.748;9.166;2023-01-31T02:24:29;14.20;;;4.40;;
23632;SDS011;11993;48.748;9.166;2023-01-31T02:27:31;13.50;;;5.10;;
23632;SDS011;11993;48.748;9.166;2023-01-31T02:33:14;15.90;;;5.07;;
23632;SDS011;11993;48.748;9.166;2023-01-31T02:49:17;17.98;;;5.10;;
23632;SDS011;11993;48.748;9.166;2023-01-31T02:52:13;10.60;;;5.32;;
23632;SDS011;11993;48.748;9.166;2023-01-31T02:55:06;17.48;;;5.53;;
23632;SDS011;11993;48.748;9.166;2023-01-31T02:57:57;12.00;;;4.80;;
23632;SDS011;11993;48.748;9.166;2023-01-31T03:00:26;15.65;;;4.85;;
23632;SDS011;11993;48.748;9.166;2023-01-31T03:02:53;11.60;;;4.60;;
23632;SDS011;11993;48.748;9.166;2023-01-31T03:05:20;15.52;;;5.03;;
23632;SDS011;11993;48.748;9.166;2023-01-31T03:07:47;12.40;;;4.82;;
23632;SDS011;11993;48.748;9.166;2023-01-31T03:10:40;19.25;;;5.57;;
23632;SDS011;11993;48.748;9.166;2023-01-31T03:13:29;11.77;;;4.57;;
23632;SDS011;11993;48.748;9.166;2023-01-31T03:19:04;11.57;;;4.53;;
23632;SDS011;11993;48.748;9.166;2023-01-31T03:22:12;15.40;;;5.40;;
23632;SDS011;11993;48.748;9.166;2023-01-31T03:24:45;12.80;;;4.85;;
23632;SDS011;11993;48.748;9.166;2023-01-31T03:27:12;16.65;;;4.57;;
23632;SDS011;11993;48.748;9.166;2023-01-31T03:29:39;13.68;;;4.95;;
23632;SDS011;11993;48.748;9.166;2023-01-31T03:32:09;13.88;;;5.13;;
23632;SDS011;11993;48.748;9.166;2023-01-31T03:34:42;10.00;;;4.55;;
23632;SDS011;11993;48.748;9.166;2023-01-31T03:37:23;16.45;;;5.25;;
23632;SDS011;11993;48.748;9.166;2023-01-31T03:42:24;11.52;;;4.78;;
23632;SDS011;11993;48.748;9.166;2023-01-31T03:47:31;13.60;;;5.00;;
23632;SDS011;11993;48.748;9.166;2023-01-31T03:50:02;12.98;;;4.22;;
23632;SDS011;11993;48.748;9.166;2023-01-31T03:52:37;14.48;;;5.10;;
23632;SDS011;11993;48.748;9.166;2023-01-31T03:55:21;17.05;;;5.00;;
23632;SDS011;11993;48.748;9.166;2023-01-31T03:57:54;13.15;;;5.43;;
23632;SDS011;11993;48.748;9.166;2023-01-31T04:00:23;18.83;;;5.75;;
23632;SDS011;11993;48.748;9.166;2023-01-31T04:02:52;14.80;;;4.45;;
23632;SDS011;11993;48.748;9.166;2023-01-31T04:05:23;18.50;;;5.38;;
23632;SDS011;11993;48.748;9.166;2023-01-31T04:07:54;11.52;;;4.03;;
23632;SDS011;11993;48.748;9.166;2023-01-31T04:10:21;12.27;;;4.50;;
23632;SDS011;11993;48.748;9.166;2023-01-31T04:12:47;16.48;;;4.85;;
23632;SDS011;11993;48.748;9.166;2023-01-31T04:15:12;24.48;;;5.35;;
23632;SDS011;11993;48.748;9.166;2023-01-31T04:17:38;15.93;;;4.47;;
23632;SDS011;11993;48.748;9.166;2023-01-31T04:20:04;17.83;;;4.95;;
23632;SDS011;11993;48.748;9.166;2023-01-31T04:22:31;10.48;;;4.50;;
23632;SDS011;11993;48.748;9.166;2023-01-31T04:24:56;27.60;;;7.50;;
23632;SDS011;11993;48.748;9.166;2023-01-31T04:27:22;16.45;;;5.00;;
23632;SDS011;11993;48.748;9.166;2023-01-31T04:29:48;16.55;;;5.20;;
23632;SDS011;11993;48.748;9.166;2023-01-31T04:32:13;16.33;;;5.10;;
23632;SDS011;11993;48.748;9.166;2023-01-31T04:34:39;19.90;;;5.78;;
23632;SDS011;11993;48.748;9.166;2023-01-31T04:37:04;16.15;;;5.13;;
23632;SDS011;11993;48.748;9.166;2023-01-31T04:39:30;13.27;;;4.65;;
23632;SDS011;11993;48.748;9.166;2023-01-31T04:41:56;25.38;;;6.70;;
23632;SDS011;11993;48.748;9.166;2023-01-31T04:44:21;12.43;;;5.20;;
23632;SDS011;11993;48.748;9.166;2023-01-31T04:46:47;21.73;;;7.03;;
23632;SDS011;11993;48.748;9.166;2023-01-31T04:49:12;23.88;;;6.25;;
23632;SDS011;11993;48.748;9.166;2023-01-31T04:51:39;17.80;;;5.75;;
23632;SDS011;11993;48.748;9.166;2023-01-31T04:54:04;19.67;;;5.45;;
23632;SDS011;11993;48.748;9.166;2023-01-31T04:56:30;18.23;;;6.53;;
23632;SDS011;11993;48.748;9.166;2023-01-31T04:58:56;20.20;;;5.85;;
23632;SDS011;11993;48.748;9.166;2023-01-31T05:01:22;14.18;;;5.38;;
23632;SDS011;11993;48.748;9.166;2023-01-31T05:03:47;16.35;;;6.93;;
23632;SDS011;11993;48.748;9.166;2023-01-31T05:06:13;21.23;;;7.05;;
23632;SDS011;11993;48.748;9.166;2023-01-31T05:08:39;19.35;;;6.07;;
23632;SDS011;11993;48.748;9.166;2023-01-31T05:11:04;16.73;;;6.28;;
23632;SDS011;11993;48.748;9.166;2023-01-31T05:13:31;18.73;;;6.03;;
23632;SDS011;11993;48.748;9.166;2023-01-31T05:15:57;20.00;;;5.85;;
23632;SDS011;11993;48.748;9.166;2023-01-31T05:18:23;15.98;;;5.63;;
23632;SDS011;11993;48.748;9.166;2023-01-31T05:20:49;13.32;;;5.38;;
23632;SDS011;11993;48.748;9.166;2023-01-31T05:23:15;16.63;;;6.15;;
23632;SDS011;11993;48.748;9.166;2023-01-31T05:25:42;12.27;;;5.80;;
23632;SDS011;11993;48.748;9.166;2023-01-31T05:28:08;11.73;;;5.53;;
23632;SDS011;11993;48.748;9.166;2023-01-31T05:30:34;16.40;;;6.18;;
23632;SDS011;11993;48.748;9.166;2023-01-31T05:33:00;9.60;;;4.70;;
23632;SDS011;11993;48.748;9.166;2023-01-31T05:35:25;12.80;;;5.03;;
23632;SDS011;11993;48.748;9.166;2023-01-31T05:37:52;9.85;;;4.32;;
23632;SDS011;11993;48.748;9.166;2023-01-31T05:40:18;18.10;;;6.03;;
23632;SDS011;11993;48.748;9.166;2023-01-31T05:42:44;12.05;;;4.85;;
23632;SDS011;11993;48.748;9.166;2023-01-31T05:45:10;12.90;;;5.35;;
23632;SDS011;11993;48.748;9.166;2023-01-31T05:47:36;17.25;;;6.65;;
23632;SDS011;11993;48.748;9.166;2023-01-31T05:50:02;13.15;;;6.35;;
23632;SDS011;11993;48.748;9.166;2023-01-31T05:52:27;12.93;;;6.60;;
23632;SDS011;11993;48.748;9.166;2023-01-31T05:54:53;12.07;;;5.63;;
23632;SDS011;11993;48.748;9.166;2023-01-31T05:57:19;13.45;;;6.10;;
23632;SDS011;11993;48.748;9.166;2023-01-31T05:59:44;19.58;;;7.18;;
23632;SDS011;11993;48.748;9.166;2023-01-31T06:02:10;11.85;;;5.40;;
23632;SDS011;11993;48.748;9.166;2023-01-31T06:04:36;12.48;;;5.90;;
23632;SDS011;11993;48.748;9.166;2023-01-31T06:07:02;15.90;;;5.82;;
23632;SDS011;11993;48.748;9.166;2023-01-31T06:09:27;20.20;;;6.28;;
23632;SDS011;11993;48.748;9.166;2023-01-31T06:11:53;10.07;;;5.10;;
23632;SDS011;11993;48.748;9.166;2023-01-31T06:14:19;14.07;;;6.50;;
23632;SDS011;11993;48.748;9.166;2023-01-31T06:16:44;12.95;;;5.43;;
23632;SDS011;11993;48.748;9.166;2023-01-31T06:19:12;9.27;;;4.85;;
23632;SDS011;11993;48.748;9.166;2023-01-31T06:21:37;14.60;;;6.28;;
23632;SDS011;11993;48.748;9.166;2023-01-31T06:24:03;14.15;;;6.03;;
23632;SDS011;11993;48.748;9.166;2023-01-31T06:26:30;10.80;;;6.07;;
23632;SDS011;11993;48.748;9.166;2023-01-31T06:28:56;13.77;;;6.32;;
23632;SDS011;11993;48.748;9.166;2023-01-31T06:31:23;15.27;;;6.60;;
23632;SDS011;11993;48.748;9.166;2023-01-31T06:33:48;12.60;;;6.18;;
23632;SDS011;11993;48.748;9.166;2023-01-31T06:36:16;10.75;;;5.85;;
23632;SDS011;11993;48.748;9.166;2023-01-31T06:38:41;19.73;;;7.32;;
23632;SDS011;11993;48.748;9.166;2023-01-31T06:41:07;23.33;;;6.75;;
23632;SDS011;11993;48.748;9.166;2023-01-31T06:43:32;13.35;;;6.07;;
23632;SDS011;11993;48.748;9.166;2023-01-31T06:45:58;13.90;;;6.53;;
23632;SDS011;11993;48.748;9.166;2023-01-31T06:48:23;13.73;;;6.13;;
23632;SDS011;11993;48.748;9.166;2023-01-31T06:50:49;15.40;;;6.35;;
23632;SDS011;11993;48.748;9.166;2023-01-31T06:53:14;19.02;;;6.30;;
23632;SDS011;11993;48.748;9.166;2023-01-31T06:55:40;17.13;;;7.15;;
23632;SDS011;11993;48.748;9.166;2023-01-31T06:58:06;16.35;;;6.47;;
23632;SDS011;11993;48.748;9.166;2023-01-31T07:00:31;16.95;;;7.20;;
23632;SDS011;11993;48.748;9.166;2023-01-31T07:02:57;18.23;;;7.68;;
23632;SDS011;11993;48.748;9.166;2023-01-31T07:05:22;20.08;;;7.43;;
23632;SDS011;11993;48.748;9.166;2023-01-31T07:07:48;17.95;;;6.55;;
23632;SDS011;11993;48.748;9.166;2023-01-31T07:10:14;18.33;;;8.00;;
23632;SDS011;11993;48.748;9.166;2023-01-31T07:12:40;24.05;;;7.88;;
23632;SDS011;11993;48.748;9.166;2023-01-31T07:15:06;16.17;;;7.18;;
23632;SDS011;11993;48.748;9.166;2023-01-31T07:17:32;17.13;;;7.15;;
23632;SDS011;11993;48.748;9.166;2023-01-31T07:19:58;25.15;;;7.25;;
23632;SDS011;11993;48.748;9.166;2023-01-31T07:22:24;16.38;;;7.03;;
23632;SDS011;11993;48.748;9.166;2023-01-31T07:24:49;17.95;;;6.15;;
23632;SDS011;11993;48.748;9.166;2023-01-31T07:27:15;16.40;;;6.00;;
23632;SDS011;11993;48.748;9.166;2023-01-31T07:29:41;20.38;;;6.47;;
23632;SDS011;11993;48.748;9.166;2023-01-31T07:32:07;18.13;;;7.55;;
23632;SDS011;11993;48.748;9.166;2023-01-31T07:34:33;20.45;;;6.97;;
23632;SDS011;11993;48.748;9.166;2023-01-31T07:36:59;19.13;;;6.68;;
23632;SDS011;11993;48.748;9.166;2023-01-31T07:39:25;16.52;;;6.28;;
23632;SDS011;11993;48.748;9.166;2023-01-31T07:41:51;16.10;;;6.07;;
23632;SDS011;11993;48.748;9.166;2023-01-31T07:44:17;18.23;;;7.05;;
23632;SDS011;11993;48.748;9.166;2023-01-31T07:46:42;23.88;;;6.85;;
23632;SDS011;11993;48.748;9.166;2023-01-31T07:49:08;18.50;;;7.80;;
23632;SDS011;11993;48.748;9.166;2023-01-31T07:51:53;16.80;;;6.15;;
23632;SDS011;11993;48.748;9.166;2023-01-31T07:54:19;18.30;;;6.90;;
23632;SDS011;11993;48.748;9.166;2023-01-31T07:56:44;13.23;;;6.03;;
23632;SDS011;11993;48.748;9.166;2023-01-31T07:59:11;18.35;;;6.80;;
23632;SDS011;11993;48.748;9.166;2023-01-31T08:01:37;19.98;;;6.40;;
23632;SDS011;11993;48.748;9.166;2023-01-31T08:04:21;17.85;;;5.85;;
23632;SDS011;11993;48.748;9.166;2023-01-31T08:06:47;17.92;;;6.00;;
23632;SDS011;11993;48.748;9.166;2023-01-31T08:09:14;19.92;;;6.70;;
23632;SDS011;11993;48.748;9.166;2023-01-31T08:11:40;22.60;;;6.10;;
23632;SDS011;11993;48.748;9.166;2023-01-31T08:14:05;15.98;;;5.90;;
23632;SDS011;11993;48.748;9.166;2023-01-31T08:16:32;17.50;;;5.78;;
23632;SDS011;11993;48.748;9.166;2023-01-31T08:19:00;16.52;;;5.85;;
23632;SDS011;11993;48.748;9.166;2023-01-31T08:21:25;18.38;;;6.40;;
23632;SDS011;11993;48.748;9.166;2023-01-31T08:23:51;12.00;;;4.63;;
23632;SDS011;11993;48.748;9.166;2023-01-31T08:26:17;22.42;;;5.65;;
23632;SDS011;11993;48.748;9.166;2023-01-31T08:28:45;18.02;;;5.03;;
23632;SDS011;11993;48.748;9.166;2023-01-31T08:31:12;12.68;;;4.93;;
23632;SDS011;11993;48.748;9.166;2023-01-31T08:33:40;18.05;;;5.38;;
23632;SDS011;11993;48.748;9.166;2023-01-31T08:36:09;13.27;;;5.10;;
23632;SDS011;11993;48.748;9.166;2023-01-31T08:38:37;15.38;;;4.68;;
23632;SDS011;11993;48.748;9.166;2023-01-31T08:41:02;12.48;;;4.45;;
23632;SDS011;11993;48.748;9.166;2023-01-31T08:43:28;16.65;;;5.43;;
23632;SDS011;11993;48.748;9.166;2023-01-31T08:45:55;18.17;;;4.43;;
23632;SDS011;11993;48.748;9.166;2023-01-31T08:48:20;19.33;;;4.78;;
23632;SDS011;11993;48.748;9.166;2023-01-31T08:50:46;16.02;;;4.85;;
23632;SDS011;11993;48.748;9.166;2023-01-31T08:53:11;21.25;;;5.88;;
23632;SDS011;11993;48.748;9.166;2023-01-31T08:55:37;18.88;;;5.43;;
23632;SDS011;11993;48.748;9.166;2023-01-31T08:58:02;15.80;;;5.20;;
23632;SDS011;11993;48.748;9.166;2023-01-31T09:00:29;18.13;;;5.35;;
23632;SDS011;11993;48.748;9.166;2023-01-31T09:02:56;18.05;;;5.35;;
23632;SDS011;11993;48.748;9.166;2023-01-31T09:05:23;16.27;;;5.13;;
23632;SDS011;11993;48.748;9.166;2023-01-31T09:07:50;18.95;;;5.40;;
23632;SDS011;11993;48.748;9.166;2023-01-31T09:10:18;17.48;;;4.53;;
23632;SDS011;11993;48.748;9.166;2023-01-31T09:12:44;16.58;;;5.30;;
23632;SDS011;11993;48.748;9.166;2023-01-31T09:15:10;17.75;;;5.72;;
23632;SDS011;11993;48.748;9.166;2023-01-31T09:17:37;23.25;;;5.25;;
23632;SDS011;11993;48.748;9.166;2023-01-31T09:20:03;74.82;;;11.98;;
23632;SDS011;11993;48.748;9.166;2023-01-31T09:22:34;58.53;;;8.20;;
23632;SDS011;11993;48.748;9.166;2023-01-31T09:25:00;21.52;;;5.10;;
23632;SDS011;11993;48.748;9.166;2023-01-31T09:27:26;18.05;;;4.78;;
23632;SDS011;11993;48.748;9.166;2023-01-31T09:29:52;13.88;;;4.80;;
23632;SDS011;11993;48.748;9.166;2023-01-31T09:32:18;26.10;;;5.60;;
23632;SDS011;11993;48.748;9.166;2023-01-31T09:34:45;18.98;;;5.15;;
23632;SDS011;11993;48.748;9.166;2023-01-31T09:37:12;16.50;;;4.60;;
23632;SDS011;11993;48.748;9.166;2023-01-31T09:39:41;11.57;;;3.95;;
23632;SDS011;11993;48.748;9.166;2023-01-31T09:42:12;9.98;;;4.07;;
23632;SDS011;11993;48.748;9.166;2023-01-31T09:44:41;16.73;;;4.63;;
23632;SDS011;11993;48.748;9.166;2023-01-31T09:47:17;11.70;;;3.75;;
23632;SDS011;11993;48.748;9.166;2023-01-31T09:49:57;14.38;;;4.50;;
23632;SDS011;11993;48.748;9.166;2023-01-31T09:52:29;12.15;;;4.10;;
23632;SDS011;11993;48.748;9.166;2023-01-31T09:54:56;12.32;;;4.03;;
23632;SDS011;11993;48.748;9.166;2023-01-31T10:00:09;12.60;;;4.43;;
23632;SDS011;11993;48.748;9.166;2023-01-31T10:08:07;18.17;;;4.82;;
23632;SDS011;11993;48.748;9.166;2023-01-31T10:10:56;12.10;;;4.13;;
23632;SDS011;11993;48.748;9.166;2023-01-31T10:16:17;26.83;;;4.88;;
23632;SDS011;11993;48.748;9.166;2023-01-31T10:18:56;20.48;;;4.30;;
23632;SDS011;11993;48.748;9.166;2023-01-31T10:21:39;20.80;;;4.80;;
23632;SDS011;11993;48.748;9.166;2023-01-31T10:24:15;16.70;;;4.40;;
23632;SDS011;11993;48.748;9.166;2023-01-31T10:26:48;47.22;;;7.57;;
23632;SDS011;11993;48.748;9.166;2023-01-31T10:29:17;12.32;;;4.03;;
23632;SDS011;11993;48.748;9.166;2023-01-31T10:32:04;9.45;;;4.10;;
23632;SDS011;11993;48.748;9.166;2023-01-31T10:37:09;17.70;;;4.75;;
23632;SDS011;11993;48.748;9.166;2023-01-31T10:47:50;14.98;;;3.80;;
23632;SDS011;11993;48.748;9.166;2023-01-31T10:50:33;10.65;;;3.85;;
23632;SDS011;11993;48.748;9.166;2023-01-31T10:58:29;13.82;;;4.70;;
23632;SDS011;11993;48.748;9.166;2023-01-31T11:00:55;10.98;;;3.72;;
23632;SDS011;11993;48.748;9.166;2023-01-31T11:03:21;16.15;;;4.40;;
23632;SDS011;11993;48.748;9.166;2023-01-31T11:05:52;17.27;;;4.22;;
23632;SDS011;11993;48.748;9.166;2023-01-31T11:10:57;13.15;;;4.38;;
23632;SDS011;11993;48.748;9.166;2023-01-31T11:13:28;10.40;;;3.50;;
23632;SDS011;11993;48.748;9.166;2023-01-31T11:15:53;17.58;;;4.78;;
23632;SDS011;11993;48.748;9.166;2023-01-31T11:18:24;11.68;;;3.78;;
23632;SDS011;11993;48.748;9.166;2023-01-31T11:20:51;9.77;;;3.45;;
23632;SDS011;11993;48.748;9.166;2023-01-31T11:23:24;11.77;;;4.18;;
23632;SDS011;11993;48.748;9.166;2023-01-31T11:25:52;19.40;;;4.15;;
23632;SDS011;11993;48.748;9.166;2023-01-31T11:28:23;13.50;;;3.58;;
23632;SDS011;11993;48.748;9.166;2023-01-31T11:31:05;15.15;;;3.85;;
23632;SDS011;11993;48.748;9.166;2023-01-31T11:33:42;18.20;;;3.63;;
23632;SDS011;11993;48.748;9.166;2023-01-31T11:36:15;10.85;;;3.13;;
23632;SDS011;11993;48.748;9.166;2023-01-31T11:38:46;8.18;;;3.42;;
23632;SDS011;11993;48.748;9.166;2023-01-31T11:44:18;10.13;;;3.33;;
23632;SDS011;11993;48.748;9.166;2023-01-31T11:46:54;17.70;;;3.97;;
23632;SDS011;11993;48.748;9.166;2023-01-31T11:49:35;14.70;;;3.20;;
23632;SDS011;11993;48.748;9.166;2023-01-31T11:52:11;11.73;;;3.67;;
23632;SDS011;11993;48.748;9.166;2023-01-31T11:54:43;28.73;;;9.20;;
23632;SDS011;11993;48.748;9.166;2023-01-31T11:57:13;13.30;;;3.00;;
23632;SDS011;11993;48.748;9.166;2023-01-31T11:59:40;14.90;;;3.40;;
23632;SDS011;11993;48.748;9.166;2023-01-31T12:02:12;7.97;;;2.80;;
23632;SDS011;11993;48.748;9.166;2023-01-31T12:05:00;11.68;;;3.08;;
23632;SDS011;11993;48.748;9.166;2023-01-31T12:10:28;16.27;;;3.60;;
23632;SDS011;11993;48.748;9.166;2023-01-31T12:13:14;12.35;;;3.25;;
23632;SDS011;11993;48.748;9.166;2023-01-31T12:16:00;11.20;;;3.17;;
23632;SDS011;11993;48.748;9.166;2023-01-31T12:21:16;44.05;;;6.70;;
23632;SDS011;11993;48.748;9.166;2023-01-31T12:26:46;40.25;;;6.18;;
23632;SDS011;11993;48.748;9.166;2023-01-31T12:45:29;16.13;;;3.10;;
23632;SDS011;11993;48.748;9.166;2023-01-31T12:48:27;9.98;;;3.13;;
23632;SDS011;11993;48.748;9.166;2023-01-31T12:51:30;10.90;;;2.90;;
23632;SDS011;11993;48.748;9.166;2023-01-31T12:54:31;7.18;;;2.63;;
23632;SDS011;11993;48.748;9.166;2023-01-31T13:02:28;12.35;;;2.70;;
23632;SDS011;11993;48.748;9.166;2023-01-31T13:10:49;10.52;;;2.88;;
23632;SDS011;11993;48.748;9.166;2023-01-31T13:13:28;9.55;;;3.25;;
23632;SDS011;11993;48.748;9.166;2023-01-31T13:16:00;11.57;;;3.13;;
23632;SDS011;11993;48.748;9.166;2023-01-31T13:18:33;9.95;;;2.80;;
23632;SDS011;11993;48.748;9.166;2023-01-31T13:21:01;10.85;;;3.00;;
23632;SDS011;11993;48.748;9.166;2023-01-31T13:23:38;13.50;;;2.88;;
23632;SDS011;11993;48.748;9.166;2023-01-31T13:26:11;11.77;;;2.88;;
23632;SDS011;11993;48.748;9.166;2023-01-31T13:31:32;13.35;;;3.15;;
23632;SDS011;11993;48.748;9.166;2023-01-31T13:34:05;10.15;;;2.65;;
23632;SDS011;11993;48.748;9.166;2023-01-31T13:36:42;11.70;;;3.60;;
23632;SDS011;11993;48.748;9.166;2023-01-31T13:39:16;14.50;;;3.58;;
23632;SDS011;11993;48.748;9.166;2023-01-31T13:41:49;13.02;;;3.42;;
23632;SDS011;11993;48.748;9.166;2023-01-31T13:44:15;7.70;;;3.08;;
23632;SDS011;11993;48.748;9.166;2023-01-31T13:49:08;13.35;;;2.83;;
23632;SDS011;11993;48.748;9.166;2023-01-31T13:51:47;15.80;;;3.65;;
23632;SDS011;11993;48.748;9.166;2023-01-31T13:57:02;14.77;;;4.28;;
23632;SDS011;11993;48.748;9.166;2023-01-31T13:59:30;8.30;;;3.40;;
23632;SDS011;11993;48.748;9.166;2023-01-31T14:01:59;13.07;;;3.75;;
23632;SDS011;11993;48.748;9.166;2023-01-31T14:04:33;18.63;;;4.65;;
23632;SDS011;11993;48.748;9.166;2023-01-31T14:27:24;11.43;;;3.63;;
23632;SDS011;11993;48.748;9.166;2023-01-31T14:43:31;9.15;;;3.20;;
23632;SDS011;11993;48.748;9.166;2023-01-31T14:46:18;6.57;;;3.05;;
23632;SDS011;11993;48.748;9.166;2023-01-31T14:49:28;6.97;;;3.45;;
23632;SDS011;11993;48.748;9.166;2023-01-31T14:55:31;11.13;;;3.35;;
23632;SDS011;11993;48.748;9.166;2023-01-31T14:58:19;9.77;;;3.90;;
23632;SDS011;11993;48.748;9.166;2023-01-31T15:00:53;9.15;;;4.10;;
23632;SDS011;11993;48.748;9.166;2023-01-31T15:03:26;10.52;;;3.83;;
23632;SDS011;11993;48.748;9.166;2023-01-31T15:06:12;8.00;;;3.30;;
23632;SDS011;11993;48.748;9.166;2023-01-31T15:08:42;7.70;;;3.45;;
23632;SDS011;11993;48.748;9.166;2023-01-31T15:13:54;12.88;;;4.00;;
23632;SDS011;11993;48.748;9.166;2023-01-31T15:16:23;9.48;;;3.80;;
23632;SDS011;11993;48.748;9.166;2023-01-31T15:18:59;7.35;;;3.63;;
23632;SDS011;11993;48.748;9.166;2023-01-31T15:24:20;7.95;;;3.90;;
23632;SDS011;11993;48.748;9.166;2023-01-31T15:26:48;11.18;;;3.42;;
23632;SDS011;11993;48.748;9.166;2023-01-31T15:29:18;13.15;;;3.78;;
23632;SDS011;11993;48.748;9.166;2023-01-31T15:31:49;9.70;;;3.20;;
23632;SDS011;11993;48.748;9.166;2023-01-31T15:34:20;7.35;;;3.00;;
23632;SDS011;11993;48.748;9.166;2023-01-31T15:36:59;9.32;;;3.28;;
23632;SDS011;11993;48.748;9.166;2023-01-31T15:39:50;14.13;;;3.58;;
23632;SDS011;11993;48.748;9.166;2023-01-31T15:42:22;11.52;;;5.78;;
23632;SDS011;11993;48.748;9.166;2023-01-31T15:44:48;13.02;;;4.50;;
23632;SDS011;11993;48.748;9.166;2023-01-31T15:47:20;8.23;;;3.72;;
23632;SDS011;11993;48.748;9.166;2023-01-31T15:49:47;10.13;;;3.58;;
23632;SDS011;11993;48.748;9.166;2023-01-31T15:52:17;6.47;;;3.55;;
23632;SDS011;11993;48.748;9.166;2023-01-31T15:54:54;9.18;;;3.90;;
23632;SDS011;11993;48.748;9.166;2023-01-31T15:57:25;9.95;;;3.40;;
23632;SDS011;11993;48.748;9.166;2023-01-31T15:59:55;9.52;;;3.60;;
23632;SDS011;11993;48.748;9.166;2023-01-31T16:02:26;12.95;;;4.13;;
23632;SDS011;11993;48.748;9.166;2023-01-31T16:04:54;8.02;;;3.35;;
23632;SDS011;11993;48.748;9.166;2023-01-31T16:07:20;9.32;;;3.03;;
23632;SDS011;11993;48.748;9.166;2023-01-31T16:09:53;7.13;;;3.20;;
23632;SDS011;11993;48.748;9.166;2023-01-31T16:12:20;9.38;;;3.78;;
23632;SDS011;11993;48.748;9.166;2023-01-31T16:14:46;8.00;;;3.50;;
23632;SDS011;11993;48.748;9.166;2023-01-31T16:17:13;9.65;;;3.70;;
23632;SDS011;11993;48.748;9.166;2023-01-31T16:19:39;7.15;;;3.85;;
23632;SDS011;11993;48.748;9.166;2023-01-31T16:24:56;7.80;;;3.40;;
23632;SDS011;11993;48.748;9.166;2023-01-31T16:27:23;12.93;;;3.38;;
23632;SDS011;11993;48.748;9.166;2023-01-31T16:29:52;11.20;;;3.65;;
23632;SDS011;11993;48.748;9.166;2023-01-31T16:32:37;5.95;;;3.10;;
23632;SDS011;11993;48.748;9.166;2023-01-31T16:35:06;12.00;;;3.97;;
23632;SDS011;11993;48.748;9.166;2023-01-31T16:37:45;6.55;;;3.38;;
23632;SDS011;11993;48.748;9.166;2023-01-31T16:40:18;9.52;;;3.50;;
23632;SDS011;11993;48.748;9.166;2023-01-31T16:42:46;7.00;;;4.00;;
23632;SDS011;11993;48.748;9.166;2023-01-31T16:45:28;11.95;;;4.05;;
23632;SDS011;11993;48.748;9.166;2023-01-31T16:48:08;8.77;;;3.55;;
23632;SDS011;11993;48.748;9.166;2023-01-31T16:50:44;10.38;;;3.63;;
23632;SDS011;11993;48.748;9.166;2023-01-31T16:53:43;7.70;;;3.83;;
23632;SDS011;11993;48.748;9.166;2023-01-31T16:56:14;9.15;;;3.38;;
23632;SDS011;11993;48.748;9.166;2023-01-31T17:04:13;7.70;;;3.78;;
23632;SDS011;11993;48.748;9.166;2023-01-31T17:06:42;10.77;;;3.72;;
23632;SDS011;11993;48.748;9.166;2023-01-31T17:09:14;10.25;;;3.78;;
23632;SDS011;11993;48.748;9.166;2023-01-31T17:11:43;7.68;;;3.70;;
23632;SDS011;11993;48.748;9.166;2023-01-31T17:14:11;7.13;;;3.50;;
23632;SDS011;11993;48.748;9.166;2023-01-31T17:16:37;12.60;;;4.15;;
23632;SDS011;11993;48.748;9.166;2023-01-31T17:19:03;10.30;;;3.70;;
23632;SDS011;11993;48.748;9.166;2023-01-31T17:21:29;16.00;;;4.38;;
23632;SDS011;11993;48.748;9.166;2023-01-31T17:24:03;9.63;;;3.75;;
23632;SDS011;11993;48.748;9.166;2023-01-31T17:26:29;8.45;;;3.80;;
23632;SDS011;11993;48.748;9.166;2023-01-31T17:28:54;8.00;;;3.90;;
23632;SDS011;11993;48.748;9.166;2023-01-31T17:31:21;8.95;;;3.60;;